createdAt,value
2018-05-10T00:01:55.441Z,100789.70
2018-05-10T00:04:22.886Z,100783.11
2018-05-10T00:06:50.306Z,100780.27
2018-05-10T00:09:17.763Z,100778.17
2018-05-10T00:11:45.186Z,100772.70
2018-05-10T00:14:12.597Z,100773.52
2018-05-10T00:16:40.030Z,100768.05
2018-05-10T00:19:07.441Z,100774.58
2018-05-10T00:21:34.881Z,100768.19
2018-05-10T00:24:03.237Z,100762.92
2018-05-10T00:26:30.683Z,100764.11
2018-05-10T00:28:58.093Z,100759.78
2018-05-10T00:31:25.533Z,100760.35
2018-05-10T00:33:52.958Z,100751.05
2018-05-10T00:36:20.401Z,100751.70
2018-05-10T00:38:47.818Z,100754.11
2018-05-10T00:41:15.255Z,100754.09
2018-05-10T00:43:42.679Z,100755.94
2018-05-10T00:46:10.118Z,100750.08
2018-05-10T00:48:37.533Z,100744.14
2018-05-10T00:51:04.956Z,100746.31
2018-05-10T00:53:32.378Z,100742.58
2018-05-10T00:55:59.799Z,100739.41
2018-05-10T00:58:27.241Z,100739.94
2018-05-10T01:00:54.655Z,100740.20
2018-05-10T01:03:22.090Z,100733.67
2018-05-10T01:05:49.507Z,100740.80
2018-05-10T01:08:16.949Z,100732.94
2018-05-10T01:10:44.357Z,100734.59
2018-05-10T01:13:11.847Z,100739.02
2018-05-10T01:15:39.213Z,100734.91
2018-05-10T01:18:06.655Z,100736.29
2018-05-10T01:20:34.073Z,100731.78
2018-05-10T01:23:01.521Z,100734.91
2018-05-10T01:25:28.938Z,100730.59
2018-05-10T01:27:57.346Z,100730.77
2018-05-10T01:30:24.757Z,100722.82
2018-05-10T01:32:52.194Z,100717.86
2018-05-10T01:35:31.236Z,100724.64
2018-05-10T01:37:58.669Z,100718.03
2018-05-10T01:40:26.090Z,100712.91
2018-05-10T01:42:53.538Z,100713.94
2018-05-10T01:45:20.950Z,100711.53
2018-05-10T01:47:48.367Z,100712.95
2018-05-10T01:50:15.815Z,100708.75
2018-05-10T01:52:45.142Z,100713.84
2018-05-10T01:55:12.586Z,100713.23
2018-05-10T01:57:39.997Z,100707.37
2018-05-10T02:00:08.406Z,100703.48
2018-05-10T02:02:36.760Z,100709.53
2018-05-10T02:05:04.194Z,100704.15
2018-05-10T02:07:31.616Z,100700.52
2018-05-10T02:09:59.061Z,100700.19
2018-05-10T02:12:26.478Z,100699.30
2018-05-10T02:14:54.895Z,100696.72
2018-05-10T02:17:22.301Z,100701.02
2018-05-10T02:19:49.746Z,100696.63
2018-05-10T02:22:17.158Z,100691.70
2018-05-10T02:24:44.592Z,100691.11
2018-05-10T02:27:12.010Z,100685.57
2018-05-10T02:29:39.498Z,100683.03
2018-05-10T02:32:06.880Z,100686.41
2018-05-10T02:34:34.345Z,100684.34
2018-05-10T02:37:01.761Z,100685.25
2018-05-10T02:39:29.186Z,100682.76
2018-05-10T02:41:56.637Z,100678.88
2018-05-10T02:44:24.050Z,100677.97
2018-05-10T02:46:51.482Z,100679.78
2018-05-10T02:49:18.910Z,100679.89
2018-05-10T02:51:46.347Z,100677.73
2018-05-10T02:54:14.658Z,100682.77
2018-05-10T02:56:43.002Z,100687.13
2018-05-10T02:59:10.454Z,100685.17
2018-05-10T03:01:39.861Z,100683.59
2018-05-10T03:04:07.285Z,100682.02
2018-05-10T03:06:34.725Z,100681.69
2018-05-10T03:09:02.174Z,100681.45
2018-05-10T03:11:29.618Z,100682.03
2018-05-10T03:13:57.040Z,100685.34
2018-05-10T03:16:25.418Z,100676.16
2018-05-10T03:18:52.834Z,100671.87
2018-05-10T03:21:20.277Z,100668.66
2018-05-10T03:23:49.693Z,100663.78
2018-05-10T03:26:17.141Z,100658.91
2018-05-10T03:28:47.689Z,100664.73
2018-05-10T03:31:15.158Z,100668.30
2018-05-10T03:33:45.754Z,100661.95
2018-05-10T03:36:13.170Z,100664.66
2018-05-10T03:38:40.622Z,100664.32
2018-05-10T03:41:08.036Z,100666.61
2018-05-10T03:43:37.386Z,100669.32
2018-05-10T03:46:05.717Z,100671.47
2018-05-10T03:48:33.160Z,100674.37
2018-05-10T03:51:01.473Z,100672.92
2018-05-10T03:53:30.801Z,100673.39
2018-05-10T03:55:58.215Z,100669.92
2018-05-10T03:58:25.650Z,100668.61
2018-05-10T04:00:53.066Z,100666.95
2018-05-10T04:06:28.050Z,100674.86
2018-05-10T04:09:07.174Z,100670.95
2018-05-10T04:11:34.578Z,100673.34
2018-05-10T04:14:02.025Z,100674.91
2018-05-10T04:16:29.457Z,100673.95
2018-05-10T04:18:56.905Z,100675.45
2018-05-10T04:21:24.310Z,100672.45
2018-05-10T04:23:51.745Z,100663.72
2018-05-10T04:26:19.177Z,100667.81
2018-05-10T04:28:46.593Z,100662.98
2018-05-10T04:31:14.034Z,100659.24
2018-05-10T04:33:41.446Z,100661.29
2018-05-10T04:36:08.897Z,100654.63
2018-05-10T04:38:36.314Z,100647.58
2018-05-10T04:41:03.749Z,100642.87
2018-05-10T04:43:31.187Z,100648.52
2018-05-10T04:45:58.962Z,100650.78
2018-05-10T04:48:26.381Z,100649.63
2018-05-10T04:50:53.827Z,100654.16
2018-05-10T04:53:22.241Z,100652.95
2018-05-10T04:55:49.679Z,100653.73
2018-05-10T04:58:17.091Z,100660.09
2018-05-10T05:00:44.527Z,100663.50
2018-05-10T05:03:11.952Z,100651.89
2018-05-10T05:05:39.406Z,100656.80
2018-05-10T05:08:06.815Z,100656.67
2018-05-10T05:10:34.241Z,100647.91
2018-05-10T05:13:02.633Z,100647.56
2018-05-10T05:15:30.067Z,100647.72
2018-05-10T05:17:57.506Z,100648.56
2018-05-10T05:20:25.985Z,100647.52
2018-05-10T05:22:53.345Z,100653.63
2018-05-10T05:25:20.757Z,100650.17
2018-05-10T05:27:48.194Z,100652.99
2018-05-10T05:30:15.609Z,100652.30
2018-05-10T05:32:43.106Z,100660.73
2018-05-10T05:35:10.488Z,100658.88
2018-05-10T05:37:37.930Z,100658.09
2018-05-10T05:40:05.359Z,100653.20
2018-05-10T05:42:32.810Z,100651.92
2018-05-10T05:45:00.229Z,100651.19
2018-05-10T05:47:27.674Z,100651.02
2018-05-10T05:49:56.094Z,100656.78
2018-05-10T05:52:23.541Z,100661.20
2018-05-10T05:54:50.963Z,100654.94
2018-05-10T05:57:18.490Z,100656.99
2018-05-10T05:59:45.898Z,100651.11
2018-05-10T06:02:13.310Z,100658.42
2018-05-10T06:04:40.757Z,100659.52
2018-05-10T06:07:08.177Z,100669.66
2018-05-10T06:09:35.610Z,100666.12
2018-05-10T06:12:03.023Z,100667.17
2018-05-10T06:14:30.461Z,100660.72
2018-05-10T06:16:58.837Z,100656.92
2018-05-10T06:19:26.285Z,100655.42
2018-05-10T06:21:53.701Z,100659.88
2018-05-10T06:24:21.142Z,100656.95
2018-05-10T06:26:48.562Z,100650.00
2018-05-10T06:29:16.008Z,100657.06
2018-05-10T06:31:43.428Z,100656.88
2018-05-10T06:34:11.799Z,100656.97
2018-05-10T06:36:39.206Z,100660.05
2018-05-10T06:39:06.662Z,100652.47
2018-05-10T06:41:34.094Z,100657.59
2018-05-10T06:44:01.499Z,100656.20
2018-05-10T06:46:28.938Z,100654.11
2018-05-10T06:48:56.367Z,100651.59
2018-05-10T06:51:23.807Z,100646.86
2018-05-10T06:53:51.232Z,100652.00
2018-05-10T06:56:19.622Z,100651.06
2018-05-10T06:58:50.499Z,100647.04
2018-05-10T07:01:17.942Z,100644.39
2018-05-10T07:03:45.367Z,100641.22
2018-05-10T07:06:12.811Z,100645.38
2018-05-10T07:08:40.218Z,100646.60
2018-05-10T07:11:08.657Z,100646.66
2018-05-10T07:13:37.014Z,100653.97
2018-05-10T07:16:05.346Z,100646.89
2018-05-10T07:18:32.757Z,100652.23
2018-05-10T07:21:00.207Z,100646.47
2018-05-10T07:23:27.632Z,100652.24
2018-05-10T07:25:55.107Z,100657.98
2018-05-10T07:28:22.518Z,100660.73
2018-05-10T07:30:49.934Z,100652.93
2018-05-10T07:33:17.390Z,100665.14
2018-05-10T07:35:44.812Z,100661.64
2018-05-10T07:38:12.261Z,100666.67
2018-05-10T07:40:39.696Z,100666.41
2018-05-10T07:43:08.149Z,100661.95
2018-05-10T07:45:35.561Z,100652.31
2018-05-10T07:48:03.025Z,100659.62
2018-05-10T07:50:31.410Z,100658.48
2018-05-10T07:52:58.858Z,100655.61
2018-05-10T07:55:26.283Z,100666.39
2018-05-10T07:57:55.662Z,100661.13
2018-05-10T08:00:24.026Z,100667.42
2018-05-10T08:02:51.475Z,100657.23
2018-05-10T08:05:18.893Z,100658.76
2018-05-10T08:07:46.359Z,100661.61
2018-05-10T08:10:14.798Z,100667.80
2018-05-10T08:12:42.184Z,100670.42
2018-05-10T08:15:10.625Z,100665.28
2018-05-10T08:17:38.042Z,100670.05
2018-05-10T08:20:05.488Z,100664.70
2018-05-10T08:22:33.911Z,100662.02
2018-05-10T08:25:02.290Z,100655.47
2018-05-10T08:27:52.429Z,100649.86
2018-05-10T08:30:20.947Z,100650.50
2018-05-10T08:32:49.313Z,100645.48
2018-05-10T08:35:16.755Z,100644.14
2018-05-10T08:37:44.182Z,100644.86
2018-05-10T08:40:11.617Z,100648.06
2018-05-10T08:42:39.042Z,100654.80
2018-05-10T08:45:06.508Z,100645.06
2018-05-10T08:47:33.915Z,100647.64
2018-05-10T08:50:01.358Z,100647.66
2018-05-10T08:52:28.770Z,100646.83
2018-05-10T08:54:56.212Z,100646.79
2018-05-10T08:57:23.633Z,100639.53
2018-05-10T08:59:51.093Z,100636.53
2018-05-10T09:02:18.500Z,100644.16
2018-05-10T09:04:45.918Z,100650.36
2018-05-10T09:07:13.358Z,100652.27
2018-05-10T09:09:40.774Z,100654.53
2018-05-10T09:12:08.223Z,100641.30
2018-05-10T09:14:35.637Z,100648.30
2018-05-10T09:17:03.097Z,100637.84
2018-05-10T09:19:30.517Z,100644.88
2018-05-10T09:21:57.961Z,100644.20
2018-05-10T09:24:25.382Z,100642.51
2018-05-10T09:26:52.826Z,100641.08
2018-05-10T09:29:20.242Z,100646.22
2018-05-10T09:31:47.686Z,100647.42
2018-05-10T09:34:15.105Z,100645.96
2018-05-10T09:36:42.550Z,100649.87
2018-05-10T09:39:10.057Z,100652.95
2018-05-10T09:41:37.422Z,100652.30
2018-05-10T09:44:04.855Z,100653.24
2018-05-10T09:46:32.275Z,100649.85
2018-05-10T09:48:59.718Z,100651.23
2018-05-10T09:51:27.171Z,100647.94
2018-05-10T09:53:54.602Z,100650.70
2018-05-10T09:56:22.958Z,100646.99
2018-05-10T09:58:52.464Z,100651.23
2018-05-10T10:01:33.882Z,100645.29
2018-05-10T10:04:01.446Z,100642.12
2018-05-10T10:06:28.861Z,100638.37
2018-05-10T10:08:57.249Z,100642.36
2018-05-10T10:11:26.631Z,100645.48
2018-05-10T10:13:54.078Z,100648.27
2018-05-10T10:16:21.502Z,100645.16
2018-05-10T10:18:48.961Z,100645.61
2018-05-10T10:21:16.374Z,100646.45
2018-05-10T10:23:43.822Z,100641.77
2018-05-10T10:26:12.208Z,100638.23
2018-05-10T10:28:39.649Z,100645.28
2018-05-10T10:31:07.073Z,100647.58
2018-05-10T10:33:34.532Z,100635.75
2018-05-10T10:36:01.942Z,100635.47
2018-05-10T10:38:29.395Z,100644.41
2018-05-10T10:40:56.822Z,100641.20
2018-05-10T10:43:24.230Z,100641.39
2018-05-10T10:45:51.677Z,100640.77
2018-05-10T10:48:19.106Z,100643.23
2018-05-10T10:50:46.564Z,100646.17
2018-05-10T10:53:14.883Z,100649.16
2018-05-10T10:55:42.337Z,100648.86
2018-05-10T10:58:10.762Z,100647.03
2018-05-10T11:00:38.215Z,100646.12
2018-05-10T11:03:06.598Z,100655.00
2018-05-10T11:05:36.035Z,100649.00
2018-05-10T11:08:03.458Z,100653.41
2018-05-10T11:10:30.906Z,100646.56
2018-05-10T11:12:58.322Z,100655.47
2018-05-10T11:15:25.774Z,100660.63
2018-05-10T11:17:53.198Z,100660.94
2018-05-10T11:20:20.645Z,100653.25
2018-05-10T11:22:48.070Z,100654.23
2018-05-10T11:25:15.485Z,100648.09
2018-05-10T11:27:45.691Z,100648.89
2018-05-10T11:30:13.103Z,100648.96
2018-05-10T11:32:41.526Z,100650.97
2018-05-10T11:35:08.953Z,100647.05
2018-05-10T11:37:36.394Z,100656.99
2018-05-10T11:40:03.805Z,100653.27
2018-05-10T11:42:31.249Z,100645.94
2018-05-10T11:44:58.883Z,100652.08
2018-05-10T11:47:26.337Z,100644.11
2018-05-10T11:49:55.671Z,100647.25
2018-05-10T11:52:23.555Z,100641.50
2018-05-10T11:54:50.989Z,100648.41
2018-05-10T11:57:18.449Z,100650.56
2018-05-10T11:59:45.861Z,100652.41
2018-05-10T12:02:13.310Z,100635.88
2018-05-10T12:04:40.730Z,100640.48
2018-05-10T12:07:09.114Z,100642.20
2018-05-10T12:09:36.532Z,100635.37
2018-05-10T12:12:03.981Z,100632.33
2018-05-10T12:14:33.426Z,100633.60
2018-05-10T12:17:00.856Z,100642.19
2018-05-10T12:19:29.202Z,100655.55
2018-05-10T12:21:56.627Z,100667.09
2018-05-10T12:24:24.090Z,100682.83
2018-05-10T12:26:51.506Z,100694.93
2018-05-10T12:29:18.949Z,100663.50
2018-05-10T12:31:46.372Z,100660.55
2018-05-10T12:34:13.812Z,100650.14
2018-05-10T12:36:41.246Z,100646.44
2018-05-10T12:39:09.626Z,100642.69
2018-05-10T12:41:37.089Z,100642.91
2018-05-10T12:44:05.462Z,100648.75
2018-05-10T12:46:32.965Z,100641.98
2018-05-10T12:49:00.418Z,100644.00
2018-05-10T12:51:27.833Z,100636.41
2018-05-10T12:53:55.295Z,100634.90
2018-05-10T12:56:22.800Z,100630.09
2018-05-10T12:58:50.187Z,100632.25
2018-05-10T13:01:17.609Z,100636.76
2018-05-10T13:03:45.066Z,100641.14
2018-05-10T13:06:12.490Z,100653.30
2018-05-10T13:08:39.911Z,100661.91
2018-05-10T13:11:09.334Z,100681.83
2018-05-10T13:13:36.761Z,100669.32
2018-05-10T13:16:04.237Z,100656.44
2018-05-10T13:18:32.539Z,100657.72
2018-05-10T13:20:59.982Z,100663.08
2018-05-10T13:23:27.405Z,100680.94
2018-05-10T13:25:54.854Z,100697.78
2018-05-10T13:28:22.278Z,100714.18
2018-05-10T13:30:49.736Z,100738.06
2018-05-10T13:33:18.142Z,100740.91
2018-05-10T13:35:45.584Z,100759.86
2018-05-10T13:38:13.010Z,100749.87
2018-05-10T13:40:40.463Z,100770.70
2018-05-10T13:43:07.881Z,100769.91
2018-05-10T13:45:35.334Z,100764.47
2018-05-10T13:48:02.759Z,100786.28
2018-05-10T13:50:30.211Z,100815.09
2018-05-10T13:52:57.785Z,100841.22
2018-05-10T13:55:25.099Z,100850.09
2018-05-10T13:57:52.527Z,100810.31
2018-05-10T14:00:19.957Z,100787.22
2018-05-10T14:02:48.391Z,100797.13
2018-05-10T14:05:15.806Z,100802.15
2018-05-10T14:07:43.258Z,100810.46
2018-05-10T14:10:10.694Z,100802.23
2018-05-10T14:12:38.150Z,100807.84
2018-05-10T14:15:05.591Z,100810.11
2018-05-10T14:17:33.036Z,100797.64
2018-05-10T14:20:00.461Z,100787.50
2018-05-10T14:22:27.910Z,100778.61
2018-05-10T14:24:55.349Z,100778.37
2018-05-10T14:27:22.790Z,100777.18
2018-05-10T14:29:50.211Z,100784.61
2018-05-10T14:32:17.696Z,100809.87
2018-05-10T14:34:45.090Z,100810.76
2018-05-10T14:37:12.547Z,100811.05
2018-05-10T14:39:40.919Z,100825.91
2018-05-10T14:42:08.352Z,100833.78
2018-05-10T14:44:35.810Z,100848.83
2018-05-10T14:47:03.230Z,100860.17
2018-05-10T14:49:30.679Z,100867.48
2018-05-10T14:51:58.098Z,100871.37
2018-05-10T14:54:26.509Z,100898.63
2018-05-10T14:56:53.942Z,100913.55
2018-05-10T14:59:21.398Z,100914.13
2018-05-10T15:01:48.822Z,100927.79
2018-05-10T15:04:16.277Z,100940.20
2018-05-10T15:06:43.691Z,100945.11
2018-05-10T15:09:11.146Z,100949.02
2018-05-10T15:11:38.585Z,100953.17
2018-05-10T15:14:06.030Z,100955.76
2018-05-10T15:16:34.421Z,100974.37
2018-05-10T15:19:01.869Z,100987.86
2018-05-10T15:21:29.295Z,100992.33
2018-05-10T15:23:56.752Z,100997.38
2018-05-10T15:26:24.199Z,100978.52
2018-05-10T15:28:51.622Z,101025.02
2018-05-10T15:31:19.070Z,101048.59
2018-05-10T15:33:47.430Z,101054.63
2018-05-10T15:36:14.878Z,101043.39
2018-05-10T15:38:42.347Z,101044.09
2018-05-10T15:41:09.791Z,101043.41
2018-05-10T15:43:37.222Z,101053.23
2018-05-10T15:46:05.573Z,101042.17
2018-05-10T15:48:32.990Z,101047.36
2018-05-10T15:51:00.444Z,101042.66
2018-05-10T15:53:27.871Z,101052.59
2018-05-10T15:55:55.318Z,101044.31
2018-05-10T15:58:22.743Z,101036.19
2018-05-10T16:00:50.192Z,101036.36
2018-05-10T16:03:17.613Z,101036.80
2018-05-10T16:05:45.041Z,101042.10
2018-05-10T16:08:13.491Z,101062.85
2018-05-10T16:10:40.907Z,101071.56
2018-05-10T16:13:09.317Z,101079.93
2018-05-10T16:15:36.770Z,101077.66
2018-05-10T16:18:04.821Z,101088.84
2018-05-10T16:20:32.265Z,101090.63
2018-05-10T16:22:59.714Z,101082.27
2018-05-10T16:25:27.131Z,101074.77
2018-05-10T16:27:54.573Z,101075.84
2018-05-10T16:30:22.014Z,101074.81
2018-05-10T16:32:50.415Z,101062.45
2018-05-10T16:35:17.825Z,101058.61
2018-05-10T16:37:47.261Z,101053.20
2018-05-10T16:40:15.612Z,101057.59
2018-05-10T16:42:43.070Z,101065.75
2018-05-10T16:45:11.289Z,101065.92
2018-05-10T16:47:38.726Z,101090.22
2018-05-10T16:50:06.141Z,101110.28
2018-05-10T16:52:33.590Z,101123.06
2018-05-10T16:55:02.000Z,101129.58
2018-05-10T16:57:29.463Z,101141.22
2018-05-10T16:59:57.306Z,101145.78
2018-05-10T17:02:25.098Z,101150.64
2018-05-10T17:04:53.483Z,101155.36
2018-05-10T17:07:20.911Z,101165.20
2018-05-10T17:09:48.358Z,101170.86
2018-05-10T17:12:15.777Z,101166.58
2018-05-10T17:14:43.223Z,101186.52
2018-05-10T17:17:10.661Z,101181.45
2018-05-10T17:19:38.854Z,101186.95
2018-05-10T17:22:06.286Z,101191.02
2018-05-10T17:24:33.736Z,101201.77
2018-05-10T17:27:01.156Z,101203.97
2018-05-10T17:29:29.178Z,101205.11
2018-05-10T17:31:56.606Z,101215.97
2018-05-10T17:34:25.022Z,101215.98
2018-05-10T17:36:52.450Z,101230.89
2018-05-10T17:39:19.894Z,101225.22
2018-05-10T17:41:47.316Z,101229.86
2018-05-10T17:44:14.763Z,101234.89
2018-05-10T17:46:42.226Z,101239.58
2018-05-10T17:49:09.649Z,101240.61
2018-05-10T17:51:37.102Z,101245.48
2018-05-10T17:54:04.529Z,101246.40
2018-05-10T17:56:31.986Z,101259.76
2018-05-10T17:58:59.413Z,101258.43
2018-05-10T18:01:26.853Z,101271.63
2018-05-10T18:03:54.271Z,101278.20
2018-05-10T18:06:21.732Z,101290.35
2018-05-10T18:08:49.186Z,101306.11
2018-05-10T18:11:17.564Z,101318.72
2018-05-10T18:13:45.066Z,101323.81
2018-05-10T18:16:14.475Z,101329.12
2018-05-10T18:18:45.181Z,101331.02
2018-05-10T18:21:12.636Z,101325.63
2018-05-10T18:23:40.999Z,101343.64
2018-05-10T18:26:09.401Z,101339.30
2018-05-10T18:28:36.854Z,101349.45
2018-05-10T18:31:04.291Z,101351.57
2018-05-10T18:33:31.746Z,101350.97
2018-05-10T18:36:04.114Z,101364.03
2018-05-10T18:38:32.456Z,101352.70
2018-05-10T18:40:59.873Z,101368.83
2018-05-10T18:43:27.317Z,101368.55
2018-05-10T18:45:54.738Z,101373.91
2018-05-10T18:48:22.198Z,101393.09
2018-05-10T18:50:50.574Z,101407.42
2018-05-10T18:53:18.026Z,101409.86
2018-05-10T18:55:45.465Z,101418.59
2018-05-10T18:58:12.917Z,101421.38
2018-05-10T19:00:40.341Z,101413.00
2018-05-10T19:03:09.709Z,101419.11
2018-05-10T19:05:37.145Z,101422.98
2018-05-10T19:08:07.711Z,101415.28
2018-05-10T19:10:35.163Z,101430.83
2018-05-10T19:13:02.574Z,101425.58
2018-05-10T19:15:30.051Z,101439.03
2018-05-10T19:17:57.447Z,101441.31
2018-05-10T19:20:24.902Z,101438.27
2018-05-10T19:22:52.307Z,101441.87
2018-05-10T19:25:19.755Z,101451.37
2018-05-10T19:27:47.177Z,101457.69
2018-05-10T19:30:14.640Z,101469.65
2018-05-10T19:32:42.071Z,101467.40
2018-05-10T19:35:09.491Z,101474.30
2018-05-10T19:37:36.943Z,101474.68
2018-05-10T19:40:04.355Z,101475.93
2018-05-10T19:42:31.791Z,101488.61
2018-05-10T19:44:59.206Z,101478.98
2018-05-10T19:47:26.666Z,101483.73
2018-05-10T19:49:54.086Z,101474.91
2018-05-10T19:52:22.458Z,101502.09
2018-05-10T19:54:51.822Z,101498.28
2018-05-10T19:57:19.265Z,101505.94
2018-05-10T19:59:50.001Z,101512.16
2018-05-10T20:02:17.465Z,101508.97
2018-05-10T20:04:44.882Z,101514.58
2018-05-10T20:07:12.334Z,101530.16
2018-05-10T20:09:39.741Z,101531.13
2018-05-10T20:12:07.193Z,101530.81
2018-05-10T20:14:34.615Z,101532.66
2018-05-10T20:17:02.049Z,101526.65
2018-05-10T20:19:29.475Z,101537.11
2018-05-10T20:21:56.898Z,101542.78
2018-05-10T20:24:24.349Z,101557.08
2018-05-10T20:26:51.778Z,101560.62
2018-05-10T20:29:19.228Z,101562.58
2018-05-10T20:31:46.667Z,101565.28
2018-05-10T20:34:14.112Z,101567.16
2018-05-10T20:36:42.439Z,101567.73
2018-05-10T20:39:09.886Z,101568.39
2018-05-10T20:41:37.401Z,101572.41
2018-05-10T20:44:04.789Z,101581.63
2018-05-10T20:46:32.214Z,101591.41
2018-05-10T20:48:59.670Z,101591.96
2018-05-10T20:51:27.105Z,101592.42
2018-05-10T20:53:54.548Z,101594.39
2018-05-10T20:56:21.954Z,101592.22
2018-05-10T20:58:49.415Z,101592.79
2018-05-10T21:01:16.846Z,101587.50
2018-05-10T21:03:44.420Z,101585.04
2018-05-10T21:06:11.698Z,101580.12
2018-05-10T21:08:39.118Z,101584.41
2018-05-10T21:11:06.570Z,101588.33
2018-05-10T21:13:33.993Z,101590.43
2018-05-10T21:16:03.364Z,101589.45
2018-05-10T21:18:30.786Z,101592.71
2018-05-10T21:20:58.246Z,101599.37
2018-05-10T21:23:26.632Z,101588.97
2018-05-10T21:25:54.404Z,101591.20
2018-05-10T21:28:21.832Z,101593.34
2018-05-10T21:30:49.274Z,101597.22
2018-05-10T21:33:18.599Z,101606.51
2018-05-10T21:35:46.044Z,101613.71
2018-05-10T21:38:13.458Z,101619.46
2018-05-10T21:40:40.916Z,101634.81
2018-05-10T21:43:08.334Z,101635.94
2018-05-10T21:45:36.691Z,101641.96
2018-05-10T21:48:04.590Z,101637.61
2018-05-10T21:50:32.056Z,101639.48
2018-05-10T21:53:00.419Z,101644.01
2018-05-10T21:55:29.835Z,101641.70
2018-05-10T21:57:57.286Z,101648.59
2018-05-10T22:00:25.651Z,101632.01
2018-05-10T22:02:54.056Z,101644.65
2018-05-10T22:05:21.473Z,101647.09
2018-05-10T22:07:49.882Z,101645.20
2018-05-10T22:10:18.214Z,101650.39
2018-05-10T22:12:45.666Z,101658.05
2018-05-10T22:15:13.082Z,101674.31
2018-05-10T22:17:40.525Z,101669.77
2018-05-10T22:20:07.946Z,101684.78
2018-05-10T22:22:35.412Z,101682.59
2018-05-10T22:25:02.832Z,101681.83
2018-05-10T22:27:31.221Z,101700.92
2018-05-10T22:29:58.673Z,101692.61
2018-05-10T22:32:26.106Z,101703.48
2018-05-10T22:34:53.523Z,101699.95
2018-05-10T22:37:21.130Z,101704.45
2018-05-10T22:39:48.561Z,101710.82
2018-05-10T22:42:16.909Z,101719.66
2018-05-10T22:44:44.358Z,101718.19
2018-05-10T22:47:11.774Z,101723.19
2018-05-10T22:49:39.237Z,101726.13
2018-05-10T22:52:06.650Z,101733.75
2018-05-10T22:54:34.092Z,101735.75
2018-05-10T22:57:01.526Z,101733.59
2018-05-10T22:59:29.716Z,101733.90
2018-05-10T23:01:57.126Z,101741.80
2018-05-10T23:04:24.566Z,101736.89
2018-05-10T23:06:52.920Z,101743.64
2018-05-10T23:09:20.372Z,101755.78
2018-05-10T23:11:47.781Z,101758.83
2018-05-10T23:14:15.269Z,101768.72
2018-05-10T23:16:42.681Z,101770.72
2018-05-10T23:19:10.138Z,101771.12
2018-05-10T23:21:37.556Z,101775.50
2018-05-10T23:24:05.769Z,101773.44
2018-05-10T23:26:33.223Z,101779.95
2018-05-10T23:29:00.641Z,101775.08
2018-05-10T23:31:29.046Z,101768.43
2018-05-10T23:33:56.478Z,101772.55
2018-05-10T23:36:23.914Z,101773.89
2018-05-10T23:38:51.330Z,101771.48
2018-05-10T23:41:18.786Z,101764.70
2018-05-10T23:43:46.206Z,101768.41
2018-05-10T23:46:13.654Z,101771.89
2018-05-10T23:48:41.062Z,101769.49
2018-05-10T23:51:08.508Z,101755.03
2018-05-10T23:53:35.947Z,101761.90
2018-05-10T23:56:03.381Z,101767.84
2018-05-10T23:58:30.804Z,101768.19
